createdAt,value
2019-01-28T00:04:05.821Z,5.40
2019-01-28T00:09:06.388Z,5.30
2019-01-28T00:11:35.715Z,5.50
2019-01-28T00:16:35.507Z,5.60
2019-01-28T00:19:04.909Z,5.20
2019-01-28T00:31:30.672Z,5.30
2019-01-28T00:34:00.001Z,5.30
2019-01-28T00:36:29.354Z,5.60
2019-01-28T00:38:58.687Z,5.30
2019-01-28T00:41:28.032Z,5.40
2019-01-28T00:46:26.467Z,5.50
2019-01-28T00:51:24.914Z,5.50
2019-01-28T00:53:54.279Z,5.30
2019-01-28T00:58:52.721Z,5.10
2019-01-28T01:03:51.195Z,5.20
2019-01-28T01:08:49.959Z,4.70
2019-01-28T01:11:19.288Z,4.70
2019-01-28T01:18:46.872Z,4.40
2019-01-28T01:28:43.559Z,4.20
2019-01-28T01:33:41.999Z,3.90
2019-01-28T01:36:11.357Z,3.90
2019-01-28T01:41:09.810Z,4.20
2019-01-28T01:46:08.260Z,3.90
2019-01-28T01:48:37.647Z,4.30
2019-01-28T02:01:04.719Z,3.80
2019-01-28T02:03:34.395Z,3.90
2019-01-28T02:08:32.897Z,3.90
2019-01-28T02:11:02.219Z,4.10
2019-01-28T02:16:00.692Z,3.80
2019-01-28T02:20:59.218Z,3.80
2019-01-28T02:28:26.738Z,3.80
2019-01-28T02:33:25.210Z,3.80
2019-01-28T02:35:54.536Z,3.70
2019-01-28T02:40:52.972Z,3.40
2019-01-28T02:45:51.446Z,3.50
2019-01-28T02:53:19.417Z,3.90
2019-01-28T02:58:17.877Z,3.70
2019-01-28T03:00:47.277Z,3.50
2019-01-28T03:08:15.325Z,3.50
2019-01-28T03:30:40.513Z,3.30
2019-01-28T03:35:38.995Z,3.40
2019-01-28T03:38:08.341Z,3.30
2019-01-28T03:43:06.811Z,3.30
2019-01-28T03:50:34.780Z,3.20
2019-01-28T03:55:33.281Z,3.50
2019-01-28T04:03:01.111Z,3.00
2019-01-28T04:05:30.470Z,3.20
2019-01-28T04:07:59.820Z,3.50
2019-01-28T04:17:57.245Z,3.40
2019-01-28T04:30:28.929Z,3.40
2019-01-28T04:32:58.282Z,3.30
2019-01-28T04:35:27.671Z,3.30
2019-01-28T04:40:26.113Z,3.10
2019-01-28T04:42:55.442Z,3.30
2019-01-28T04:45:25.149Z,3.00
2019-01-28T04:50:23.956Z,2.90
2019-01-28T04:55:22.382Z,3.30
2019-01-28T04:57:51.833Z,3.50
2019-01-28T05:02:56.101Z,2.90
2019-01-28T05:07:54.585Z,2.90
2019-01-28T05:12:53.029Z,2.50
2019-01-28T05:15:22.749Z,2.70
2019-01-28T05:20:23.917Z,2.80
2019-01-28T05:25:22.418Z,2.60
2019-01-28T05:30:25.550Z,2.40
2019-01-28T05:32:54.888Z,2.40
2019-01-28T05:37:53.410Z,2.30
2019-01-28T05:40:25.083Z,2.10
2019-01-28T05:45:25.057Z,2.30
2019-01-28T06:02:53.629Z,2.30
2019-01-28T06:07:52.234Z,2.20
2019-01-28T06:20:24.221Z,2.40
2019-01-28T06:22:54.049Z,2.40
2019-01-28T06:35:26.708Z,2.60
2019-01-28T06:37:56.493Z,2.40
2019-01-28T06:40:32.505Z,2.20
2019-01-28T06:45:30.991Z,2.40
2019-01-28T06:52:58.832Z,2.50
2019-01-28T06:57:57.265Z,2.40
2019-01-28T07:00:35.181Z,2.40
2019-01-28T07:03:05.662Z,2.50
2019-01-28T07:05:35.040Z,2.40
2019-01-28T07:10:33.570Z,2.40
2019-01-28T07:13:02.911Z,2.40
2019-01-28T07:18:01.438Z,2.40
2019-01-28T07:20:31.512Z,2.30
2019-01-28T07:27:59.408Z,2.60
2019-01-28T07:32:59.929Z,2.60
2019-01-28T07:35:29.306Z,2.80
2019-01-28T07:50:33.616Z,2.90
2019-01-28T08:00:31.924Z,3.10
2019-01-28T08:10:28.654Z,2.80
2019-01-28T08:12:58.145Z,3.20
2019-01-28T08:20:26.845Z,3.40
2019-01-28T08:25:25.335Z,3.30
2019-01-28T08:27:54.735Z,3.40
2019-01-28T08:32:58.922Z,3.60
2019-01-28T08:37:59.281Z,3.70
2019-01-28T08:40:28.627Z,3.80
2019-01-28T08:45:27.134Z,4.10
2019-01-28T08:50:29.074Z,4.10
2019-01-28T08:55:29.931Z,4.10
2019-01-28T08:57:59.266Z,4.30
2019-01-28T09:03:09.135Z,4.20
2019-01-28T09:08:08.773Z,4.40
2019-01-28T09:10:38.267Z,4.40
2019-01-28T09:28:03.591Z,5.30
2019-01-28T09:33:04.598Z,4.80
2019-01-28T09:35:33.997Z,4.90
2019-01-28T09:40:35.970Z,5.50
2019-01-28T09:48:11.990Z,4.50
2019-01-28T09:50:41.393Z,4.60
2019-01-28T09:53:11.342Z,4.60
2019-01-28T10:00:48.441Z,4.90
2019-01-28T10:05:46.971Z,5.00
2019-01-28T10:10:45.707Z,5.00
2019-01-28T10:18:13.337Z,4.90
2019-01-28T10:20:45.973Z,4.90
2019-01-28T10:30:45.902Z,5.10
2019-01-28T10:33:15.255Z,5.10
2019-01-28T10:38:14.274Z,5.20
2019-01-28T10:40:45.214Z,5.20
2019-01-28T10:53:11.729Z,5.30
2019-01-28T10:58:10.329Z,5.20
2019-01-28T11:00:46.096Z,5.40
2019-01-28T11:05:46.623Z,5.30
2019-01-28T11:08:16.006Z,5.50
2019-01-28T11:13:14.536Z,5.30
2019-01-28T11:23:20.425Z,5.80
2019-01-28T11:28:18.924Z,5.90
2019-01-28T11:30:56.443Z,6.00
2019-01-28T11:38:24.975Z,6.30
2019-01-28T11:45:59.615Z,6.30
2019-01-28T11:48:29.091Z,6.20
2019-01-28T11:58:25.732Z,6.30
2019-01-28T12:01:08.477Z,6.50
2019-01-28T12:03:37.832Z,6.80
2019-01-28T12:06:07.256Z,6.50
2019-01-28T12:11:25.026Z,6.50
2019-01-28T12:13:54.372Z,6.70
2019-01-28T12:28:49.551Z,6.20
2019-01-28T12:33:48.014Z,6.20
2019-01-28T12:38:46.461Z,6.10
2019-01-28T12:41:17.517Z,6.20
2019-01-28T12:43:47.130Z,6.30
2019-01-28T12:48:45.841Z,6.10
2019-01-28T12:53:44.502Z,6.20
2019-01-28T13:06:10.730Z,6.10
2019-01-28T13:11:09.286Z,5.60
2019-01-28T13:13:41.102Z,5.90
2019-01-28T13:16:09.738Z,5.60
2019-01-28T13:23:37.330Z,5.50
2019-01-28T13:28:35.892Z,5.70
2019-01-28T13:36:09.211Z,5.20
2019-01-28T13:41:03.988Z,5.30
2019-01-28T13:43:33.317Z,5.10
2019-01-28T13:53:30.036Z,4.90
2019-01-28T13:55:59.358Z,4.30
2019-01-28T13:58:28.726Z,4.30
2019-01-28T14:05:56.246Z,4.30
2019-01-28T14:10:54.897Z,5.00
2019-01-28T14:13:24.720Z,4.40
2019-01-28T14:28:24.361Z,4.10
2019-01-28T14:38:21.073Z,4.20
2019-01-28T14:40:51.023Z,4.20
2019-01-28T14:43:20.354Z,4.00
2019-01-28T14:45:49.736Z,4.20
2019-01-28T14:53:17.317Z,4.30
2019-01-28T14:55:46.671Z,4.00
2019-01-28T14:58:16.757Z,4.20
2019-01-28T15:00:46.380Z,4.00
2019-01-28T15:10:43.275Z,4.20
2019-01-28T15:20:41.721Z,3.90
2019-01-28T15:28:09.838Z,3.80
2019-01-28T15:33:08.408Z,4.10
2019-01-28T15:35:37.906Z,4.10
2019-01-28T15:40:37.341Z,4.20
2019-01-28T15:43:06.856Z,4.10
2019-01-28T15:45:40.184Z,4.20
2019-01-28T15:50:39.249Z,3.80
2019-01-28T15:55:40.670Z,4.20
2019-01-28T16:05:40.515Z,4.00
2019-01-28T16:10:39.338Z,4.20
2019-01-28T16:18:13.256Z,4.20
2019-01-28T16:20:43.118Z,4.00
2019-01-28T16:25:41.724Z,3.80
2019-01-28T16:28:11.121Z,4.10
2019-01-28T16:33:10.180Z,3.90
2019-01-28T16:35:39.497Z,4.20
2019-01-28T16:40:37.943Z,3.90
2019-01-28T16:43:07.446Z,3.80
2019-01-28T16:48:06.748Z,3.70
2019-01-28T16:50:36.921Z,3.70
2019-01-28T16:53:07.428Z,3.80
2019-01-28T16:58:06.521Z,3.70
2019-01-28T17:00:39.556Z,3.80
2019-01-28T17:10:37.825Z,3.40
2019-01-28T17:15:36.503Z,3.60
2019-01-28T17:18:06.445Z,3.70
2019-01-28T17:40:42.148Z,3.30
2019-01-28T17:53:11.531Z,3.40
2019-01-28T17:55:40.934Z,3.10
2019-01-28T18:00:46.814Z,3.50
2019-01-28T18:08:17.798Z,3.30
2019-01-28T18:10:47.183Z,3.80
2019-01-28T18:20:51.291Z,3.30
2019-01-28T18:25:45.780Z,3.30
2019-01-28T18:30:45.892Z,3.40
2019-01-28T18:35:44.510Z,3.40
2019-01-28T18:38:13.868Z,3.50
2019-01-28T18:43:12.478Z,3.40
2019-01-28T18:45:41.857Z,3.40
2019-01-28T18:50:40.305Z,3.40
2019-01-28T18:55:38.809Z,3.20
2019-01-28T18:58:08.630Z,3.50
2019-01-28T19:05:50.239Z,3.40
2019-01-28T19:08:36.452Z,3.40
2019-01-28T19:18:52.412Z,3.30
2019-01-28T19:26:27.377Z,3.40
2019-01-28T19:28:56.733Z,3.20
2019-01-28T19:31:26.136Z,3.40
2019-01-28T19:38:53.725Z,3.20
2019-01-28T19:41:23.061Z,3.20
2019-01-28T19:43:52.466Z,3.10
2019-01-28T19:56:18.195Z,3.20
2019-01-28T20:01:16.700Z,3.20
2019-01-28T20:13:42.489Z,3.20
2019-01-28T20:26:08.284Z,3.10
2019-01-28T20:31:06.971Z,3.20
2019-01-28T20:33:36.313Z,3.20
2019-01-28T20:38:34.846Z,3.30
2019-01-28T20:43:33.328Z,3.30
2019-01-28T20:46:02.777Z,3.30
2019-01-28T20:51:01.359Z,3.30
2019-01-28T20:53:30.730Z,3.20
2019-01-28T20:58:29.130Z,3.30
2019-01-28T21:08:25.858Z,3.30
2019-01-28T21:10:55.222Z,3.30
2019-01-28T21:38:37.948Z,2.80
2019-01-28T21:43:36.361Z,2.60
2019-01-28T21:56:02.646Z,2.30
2019-01-28T22:01:01.078Z,2.50
2019-01-28T22:03:30.433Z,3.40
2019-01-28T22:08:28.873Z,2.60
2019-01-28T22:10:58.238Z,2.40
2019-01-28T22:23:25.611Z,2.30
2019-01-28T22:35:51.370Z,2.20
2019-01-28T22:40:49.788Z,2.20
2019-01-28T22:48:17.303Z,2.10
2019-01-28T22:53:15.750Z,2.10
2019-01-28T22:58:14.185Z,2.00
2019-01-28T23:00:49.519Z,2.20
2019-01-28T23:08:18.786Z,2.30
2019-01-28T23:15:46.341Z,2.20
2019-01-28T23:20:44.793Z,2.00
2019-01-28T23:23:14.152Z,2.10
2019-01-28T23:28:12.681Z,2.10
2019-01-28T23:33:11.132Z,2.10
2019-01-28T23:35:40.510Z,1.90
2019-01-28T23:43:08.604Z,2.00
2019-01-28T23:48:07.142Z,2.10
2019-01-28T23:50:36.501Z,2.10
2019-01-28T23:53:05.988Z,2.00
2019-01-28T23:55:35.312Z,2.00
